sensor_id;sensor_type;location;lat;lon;timestamp;temperature;humidity
23291;DHT22;11814;44.686;10.842;2023-07-20T00:01:04;26.90;79.20
23291;DHT22;11814;44.686;10.842;2023-07-20T00:03:29;26.90;79.30
23291;DHT22;11814;44.686;10.842;2023-07-20T00:05:55;27.00;79.20
23291;DHT22;11814;44.686;10.842;2023-07-20T00:08:20;27.00;79.20
23291;DHT22;11814;44.686;10.842;2023-07-20T00:10:46;27.00;79.10
23291;DHT22;11814;44.686;10.842;2023-07-20T00:13:12;26.90;79.40
23291;DHT22;11814;44.686;10.842;2023-07-20T00:15:38;26.80;79.80
23291;DHT22;11814;44.686;10.842;2023-07-20T00:18:04;26.70;80.30
23291;DHT22;11814;44.686;10.842;2023-07-20T00:20:30;26.70;80.90
23291;DHT22;11814;44.686;10.842;2023-07-20T00:22:57;26.60;81.10
23291;DHT22;11814;44.686;10.842;2023-07-20T00:25:24;26.60;81.30
23291;DHT22;11814;44.686;10.842;2023-07-20T00:27:50;26.60;81.30
23291;DHT22;11814;44.686;10.842;2023-07-20T00:30:16;26.60;81.50
23291;DHT22;11814;44.686;10.842;2023-07-20T00:32:42;26.50;81.40
23291;DHT22;11814;44.686;10.842;2023-07-20T00:35:09;26.40;82.00
23291;DHT22;11814;44.686;10.842;2023-07-20T00:37:34;26.30;82.10
23291;DHT22;11814;44.686;10.842;2023-07-20T00:40:00;26.30;82.20
23291;DHT22;11814;44.686;10.842;2023-07-20T00:42:26;26.30;82.90
23291;DHT22;11814;44.686;10.842;2023-07-20T00:44:51;26.30;82.50
23291;DHT22;11814;44.686;10.842;2023-07-20T00:47:17;26.20;82.80
23291;DHT22;11814;44.686;10.842;2023-07-20T00:49:43;26.10;83.10
23291;DHT22;11814;44.686;10.842;2023-07-20T00:52:10;26.00;83.40
23291;DHT22;11814;44.686;10.842;2023-07-20T00:54:37;26.00;83.70
23291;DHT22;11814;44.686;10.842;2023-07-20T00:57:04;26.00;83.70
23291;DHT22;11814;44.686;10.842;2023-07-20T00:59:31;26.00;84.50
23291;DHT22;11814;44.686;10.842;2023-07-20T01:01:56;26.00;84.20
23291;DHT22;11814;44.686;10.842;2023-07-20T01:04:22;25.90;84.30
23291;DHT22;11814;44.686;10.842;2023-07-20T01:07:17;25.90;84.80
23291;DHT22;11814;44.686;10.842;2023-07-20T01:10:20;25.80;85.30
23291;DHT22;11814;44.686;10.842;2023-07-20T01:12:52;25.80;85.60
23291;DHT22;11814;44.686;10.842;2023-07-20T01:15:20;25.80;85.90
23291;DHT22;11814;44.686;10.842;2023-07-20T01:17:45;25.80;86.10
23291;DHT22;11814;44.686;10.842;2023-07-20T01:20:14;25.80;86.10
23291;DHT22;11814;44.686;10.842;2023-07-20T01:31:36;25.70;86.30
23291;DHT22;11814;44.686;10.842;2023-07-20T01:34:03;25.70;86.40
23291;DHT22;11814;44.686;10.842;2023-07-20T01:36:34;25.70;86.40
23291;DHT22;11814;44.686;10.842;2023-07-20T01:39:00;25.70;86.30
23291;DHT22;11814;44.686;10.842;2023-07-20T01:41:27;25.60;86.00
23291;DHT22;11814;44.686;10.842;2023-07-20T01:43:52;25.60;85.90
23291;DHT22;11814;44.686;10.842;2023-07-20T01:46:18;25.70;85.70
23291;DHT22;11814;44.686;10.842;2023-07-20T01:48:44;25.60;85.50
23291;DHT22;11814;44.686;10.842;2023-07-20T01:51:10;25.60;85.60
23291;DHT22;11814;44.686;10.842;2023-07-20T01:53:35;25.50;85.80
23291;DHT22;11814;44.686;10.842;2023-07-20T01:56:01;25.40;86.10
23291;DHT22;11814;44.686;10.842;2023-07-20T01:58:26;25.50;86.70
23291;DHT22;11814;44.686;10.842;2023-07-20T02:00:52;25.50;87.10
23291;DHT22;11814;44.686;10.842;2023-07-20T02:03:18;25.50;87.10
23291;DHT22;11814;44.686;10.842;2023-07-20T02:05:43;25.50;87.30
23291;DHT22;11814;44.686;10.842;2023-07-20T02:08:09;25.50;87.50
23291;DHT22;11814;44.686;10.842;2023-07-20T02:10:36;25.60;87.90
23291;DHT22;11814;44.686;10.842;2023-07-20T02:13:02;25.60;88.00
23291;DHT22;11814;44.686;10.842;2023-07-20T02:15:27;25.60;88.60
23291;DHT22;11814;44.686;10.842;2023-07-20T02:17:54;25.50;89.20
23291;DHT22;11814;44.686;10.842;2023-07-20T02:20:20;25.60;89.80
23291;DHT22;11814;44.686;10.842;2023-07-20T02:22:46;25.60;90.00
23291;DHT22;11814;44.686;10.842;2023-07-20T02:25:12;25.60;90.30
23291;DHT22;11814;44.686;10.842;2023-07-20T02:27:38;25.70;90.30
23291;DHT22;11814;44.686;10.842;2023-07-20T02:30:05;25.70;90.40
23291;DHT22;11814;44.686;10.842;2023-07-20T02:32:32;25.70;90.60
23291;DHT22;11814;44.686;10.842;2023-07-20T02:34:58;25.70;90.70
23291;DHT22;11814;44.686;10.842;2023-07-20T02:37:24;25.80;90.70
23291;DHT22;11814;44.686;10.842;2023-07-20T02:39:49;25.80;90.80
23291;DHT22;11814;44.686;10.842;2023-07-20T02:42:15;25.80;90.90
23291;DHT22;11814;44.686;10.842;2023-07-20T02:44:41;25.70;91.00
23291;DHT22;11814;44.686;10.842;2023-07-20T02:47:07;25.70;91.20
23291;DHT22;11814;44.686;10.842;2023-07-20T02:49:32;25.70;91.40
23291;DHT22;11814;44.686;10.842;2023-07-20T02:51:58;25.70;91.50
23291;DHT22;11814;44.686;10.842;2023-07-20T02:54:24;25.70;91.60
23291;DHT22;11814;44.686;10.842;2023-07-20T02:56:49;25.60;91.70
23291;DHT22;11814;44.686;10.842;2023-07-20T02:59:15;25.60;91.80
23291;DHT22;11814;44.686;10.842;2023-07-20T03:01:40;25.60;91.60
23291;DHT22;11814;44.686;10.842;2023-07-20T03:04:09;25.70;92.10
23291;DHT22;11814;44.686;10.842;2023-07-20T03:06:37;25.70;92.10
23291;DHT22;11814;44.686;10.842;2023-07-20T03:09:03;25.80;92.20
23291;DHT22;11814;44.686;10.842;2023-07-20T03:11:29;25.80;92.20
23291;DHT22;11814;44.686;10.842;2023-07-20T03:13:55;25.90;92.30
23291;DHT22;11814;44.686;10.842;2023-07-20T03:16:23;25.90;92.40
23291;DHT22;11814;44.686;10.842;2023-07-20T03:18:49;25.90;92.40
23291;DHT22;11814;44.686;10.842;2023-07-20T03:21:14;25.90;92.40
23291;DHT22;11814;44.686;10.842;2023-07-20T03:23:40;25.90;92.20
23291;DHT22;11814;44.686;10.842;2023-07-20T03:26:06;25.80;92.00
23291;DHT22;11814;44.686;10.842;2023-07-20T03:28:36;25.80;91.90
23291;DHT22;11814;44.686;10.842;2023-07-20T03:31:01;25.80;91.80
23291;DHT22;11814;44.686;10.842;2023-07-20T03:33:29;25.80;91.70
23291;DHT22;11814;44.686;10.842;2023-07-20T03:35:55;25.80;91.50
23291;DHT22;11814;44.686;10.842;2023-07-20T03:38:21;25.80;91.40
23291;DHT22;11814;44.686;10.842;2023-07-20T03:43:17;25.80;91.30
23291;DHT22;11814;44.686;10.842;2023-07-20T03:45:43;25.80;91.40
23291;DHT22;11814;44.686;10.842;2023-07-20T03:48:08;25.70;91.40
23291;DHT22;11814;44.686;10.842;2023-07-20T03:50:34;25.70;91.50
23291;DHT22;11814;44.686;10.842;2023-07-20T03:53:00;25.80;91.50
23291;DHT22;11814;44.686;10.842;2023-07-20T03:55:26;25.70;91.50
23291;DHT22;11814;44.686;10.842;2023-07-20T03:57:51;25.70;91.60
23291;DHT22;11814;44.686;10.842;2023-07-20T04:00:18;25.60;91.70
23291;DHT22;11814;44.686;10.842;2023-07-20T04:02:43;25.60;91.80
23291;DHT22;11814;44.686;10.842;2023-07-20T04:05:09;25.50;91.90
23291;DHT22;11814;44.686;10.842;2023-07-20T04:07:35;25.50;92.00
23291;DHT22;11814;44.686;10.842;2023-07-20T04:10:01;25.50;92.00
23291;DHT22;11814;44.686;10.842;2023-07-20T04:12:27;25.50;92.10
23291;DHT22;11814;44.686;10.842;2023-07-20T04:14:52;25.50;92.10
23291;DHT22;11814;44.686;10.842;2023-07-20T04:17:18;25.50;92.00
23291;DHT22;11814;44.686;10.842;2023-07-20T04:19:44;25.50;91.90
23291;DHT22;11814;44.686;10.842;2023-07-20T04:22:10;25.50;91.90
23291;DHT22;11814;44.686;10.842;2023-07-20T04:24:35;25.50;92.20
23291;DHT22;11814;44.686;10.842;2023-07-20T04:27:01;25.60;92.20
23291;DHT22;11814;44.686;10.842;2023-07-20T04:29:27;25.60;92.10
23291;DHT22;11814;44.686;10.842;2023-07-20T04:31:52;25.70;92.30
23291;DHT22;11814;44.686;10.842;2023-07-20T04:34:18;25.70;92.20
23291;DHT22;11814;44.686;10.842;2023-07-20T04:36:44;25.80;92.20
23291;DHT22;11814;44.686;10.842;2023-07-20T04:39:10;25.70;92.20
23291;DHT22;11814;44.686;10.842;2023-07-20T04:41:35;25.80;92.10
23291;DHT22;11814;44.686;10.842;2023-07-20T04:44:01;25.80;92.00
23291;DHT22;11814;44.686;10.842;2023-07-20T04:46:27;25.80;91.90
23291;DHT22;11814;44.686;10.842;2023-07-20T04:48:52;25.90;91.90
23291;DHT22;11814;44.686;10.842;2023-07-20T04:51:18;25.90;92.10
23291;DHT22;11814;44.686;10.842;2023-07-20T04:53:46;25.90;92.00
23291;DHT22;11814;44.686;10.842;2023-07-20T04:56:12;26.00;91.90
23291;DHT22;11814;44.686;10.842;2023-07-20T04:58:38;26.00;91.80
23291;DHT22;11814;44.686;10.842;2023-07-20T05:01:04;25.90;91.90
23291;DHT22;11814;44.686;10.842;2023-07-20T05:03:29;26.00;92.30
23291;DHT22;11814;44.686;10.842;2023-07-20T05:05:55;26.00;91.80
23291;DHT22;11814;44.686;10.842;2023-07-20T05:08:21;26.10;91.70
23291;DHT22;11814;44.686;10.842;2023-07-20T05:10:49;26.10;91.60
23291;DHT22;11814;44.686;10.842;2023-07-20T05:13:16;26.10;91.40
23291;DHT22;11814;44.686;10.842;2023-07-20T05:15:42;26.20;91.30
23291;DHT22;11814;44.686;10.842;2023-07-20T05:18:07;26.30;91.20
23291;DHT22;11814;44.686;10.842;2023-07-20T05:20:34;26.40;91.10
23291;DHT22;11814;44.686;10.842;2023-07-20T05:23:00;26.40;91.20
23291;DHT22;11814;44.686;10.842;2023-07-20T05:25:26;26.40;91.50
23291;DHT22;11814;44.686;10.842;2023-07-20T05:27:52;26.40;91.80
23291;DHT22;11814;44.686;10.842;2023-07-20T05:30:18;26.40;92.00
23291;DHT22;11814;44.686;10.842;2023-07-20T05:32:44;26.40;92.30
23291;DHT22;11814;44.686;10.842;2023-07-20T05:35:13;26.70;92.30
23291;DHT22;11814;44.686;10.842;2023-07-20T05:37:39;27.00;91.80
23291;DHT22;11814;44.686;10.842;2023-07-20T05:40:05;27.30;91.00
23291;DHT22;11814;44.686;10.842;2023-07-20T05:42:33;27.60;90.20
23291;DHT22;11814;44.686;10.842;2023-07-20T05:44:58;27.70;89.90
23291;DHT22;11814;44.686;10.842;2023-07-20T05:47:24;27.80;89.10
23291;DHT22;11814;44.686;10.842;2023-07-20T05:49:50;27.90;87.90
23291;DHT22;11814;44.686;10.842;2023-07-20T05:52:15;28.00;87.10
23291;DHT22;11814;44.686;10.842;2023-07-20T05:54:41;28.20;87.00
23291;DHT22;11814;44.686;10.842;2023-07-20T05:57:07;28.40;86.70
23291;DHT22;11814;44.686;10.842;2023-07-20T05:59:33;28.60;85.90
23291;DHT22;11814;44.686;10.842;2023-07-20T06:01:59;29.10;83.90
23291;DHT22;11814;44.686;10.842;2023-07-20T06:04:24;29.30;82.00
23291;DHT22;11814;44.686;10.842;2023-07-20T06:06:50;29.30;81.80
23291;DHT22;11814;44.686;10.842;2023-07-20T06:09:15;29.30;81.80
23291;DHT22;11814;44.686;10.842;2023-07-20T06:11:41;29.20;81.60
23291;DHT22;11814;44.686;10.842;2023-07-20T06:14:07;29.30;81.70
23291;DHT22;11814;44.686;10.842;2023-07-20T06:16:32;29.60;81.60
23291;DHT22;11814;44.686;10.842;2023-07-20T06:19:00;30.30;79.30
23291;DHT22;11814;44.686;10.842;2023-07-20T06:21:26;30.90;77.10
23291;DHT22;11814;44.686;10.842;2023-07-20T06:23:51;31.40;75.00
23291;DHT22;11814;44.686;10.842;2023-07-20T06:26:17;31.90;72.50
23291;DHT22;11814;44.686;10.842;2023-07-20T06:28:43;32.10;71.50
23291;DHT22;11814;44.686;10.842;2023-07-20T06:31:08;32.30;70.90
23291;DHT22;11814;44.686;10.842;2023-07-20T06:33:34;32.80;69.20
23291;DHT22;11814;44.686;10.842;2023-07-20T06:36:03;33.20;67.70
23291;DHT22;11814;44.686;10.842;2023-07-20T06:38:28;33.30;66.80
23291;DHT22;11814;44.686;10.842;2023-07-20T06:40:55;33.40;66.40
23291;DHT22;11814;44.686;10.842;2023-07-20T06:43:20;33.50;66.20
23291;DHT22;11814;44.686;10.842;2023-07-20T06:45:51;33.80;65.30
23291;DHT22;11814;44.686;10.842;2023-07-20T06:48:21;33.90;63.20
23291;DHT22;11814;44.686;10.842;2023-07-20T06:50:47;34.00;62.30
23291;DHT22;11814;44.686;10.842;2023-07-20T06:53:13;33.90;62.40
23291;DHT22;11814;44.686;10.842;2023-07-20T06:55:38;33.70;62.70
23291;DHT22;11814;44.686;10.842;2023-07-20T06:58:04;33.30;63.30
23291;DHT22;11814;44.686;10.842;2023-07-20T07:00:30;32.90;64.20
23291;DHT22;11814;44.686;10.842;2023-07-20T07:02:56;32.70;65.00
23291;DHT22;11814;44.686;10.842;2023-07-20T07:05:21;32.40;65.10
23291;DHT22;11814;44.686;10.842;2023-07-20T07:07:47;32.40;65.30
23291;DHT22;11814;44.686;10.842;2023-07-20T07:10:14;32.40;65.80
23291;DHT22;11814;44.686;10.842;2023-07-20T07:12:40;32.60;65.50
23291;DHT22;11814;44.686;10.842;2023-07-20T07:15:06;32.70;65.10
23291;DHT22;11814;44.686;10.842;2023-07-20T07:17:32;32.50;65.30
23291;DHT22;11814;44.686;10.842;2023-07-20T07:19:58;32.10;65.60
23291;DHT22;11814;44.686;10.842;2023-07-20T07:22:24;31.80;66.30
23291;DHT22;11814;44.686;10.842;2023-07-20T07:24:50;31.60;67.20
23291;DHT22;11814;44.686;10.842;2023-07-20T07:27:16;31.90;67.00
23291;DHT22;11814;44.686;10.842;2023-07-20T07:29:42;32.30;65.90
23291;DHT22;11814;44.686;10.842;2023-07-20T07:32:11;32.70;65.20
23291;DHT22;11814;44.686;10.842;2023-07-20T07:34:37;33.20;64.10
23291;DHT22;11814;44.686;10.842;2023-07-20T07:37:06;33.40;62.80
23291;DHT22;11814;44.686;10.842;2023-07-20T07:39:32;33.20;62.30
23291;DHT22;11814;44.686;10.842;2023-07-20T07:41:58;32.70;62.10
23291;DHT22;11814;44.686;10.842;2023-07-20T07:44:24;32.40;62.90
23291;DHT22;11814;44.686;10.842;2023-07-20T07:46:50;32.20;63.70
23291;DHT22;11814;44.686;10.842;2023-07-20T07:49:16;32.10;64.50
23291;DHT22;11814;44.686;10.842;2023-07-20T07:51:42;31.70;64.80
23291;DHT22;11814;44.686;10.842;2023-07-20T07:54:07;31.60;65.30
23291;DHT22;11814;44.686;10.842;2023-07-20T07:56:33;31.40;65.90
23291;DHT22;11814;44.686;10.842;2023-07-20T07:58:59;31.20;66.80
23291;DHT22;11814;44.686;10.842;2023-07-20T08:01:24;31.10;67.40
23291;DHT22;11814;44.686;10.842;2023-07-20T08:03:50;31.10;67.50
23291;DHT22;11814;44.686;10.842;2023-07-20T08:06:16;31.10;66.80
23291;DHT22;11814;44.686;10.842;2023-07-20T08:08:42;31.00;66.60
23291;DHT22;11814;44.686;10.842;2023-07-20T08:11:08;31.00;66.80
23291;DHT22;11814;44.686;10.842;2023-07-20T08:13:34;30.80;66.80
23291;DHT22;11814;44.686;10.842;2023-07-20T08:16:01;30.80;67.40
23291;DHT22;11814;44.686;10.842;2023-07-20T08:18:28;30.80;67.70
23291;DHT22;11814;44.686;10.842;2023-07-20T08:20:54;30.80;67.60
23291;DHT22;11814;44.686;10.842;2023-07-20T08:23:19;31.00;67.50
23291;DHT22;11814;44.686;10.842;2023-07-20T08:25:45;31.10;66.60
23291;DHT22;11814;44.686;10.842;2023-07-20T08:28:15;31.20;66.70
23291;DHT22;11814;44.686;10.842;2023-07-20T08:30:45;31.20;67.00
23291;DHT22;11814;44.686;10.842;2023-07-20T08:33:13;31.20;67.50
23291;DHT22;11814;44.686;10.842;2023-07-20T08:35:39;31.30;67.60
23291;DHT22;11814;44.686;10.842;2023-07-20T08:38:04;31.30;67.30
23291;DHT22;11814;44.686;10.842;2023-07-20T08:40:32;31.40;67.80
23291;DHT22;11814;44.686;10.842;2023-07-20T08:42:59;31.40;68.00
23291;DHT22;11814;44.686;10.842;2023-07-20T08:45:27;31.40;68.00
23291;DHT22;11814;44.686;10.842;2023-07-20T08:47:56;31.40;68.10
23291;DHT22;11814;44.686;10.842;2023-07-20T08:50:25;31.40;68.30
23291;DHT22;11814;44.686;10.842;2023-07-20T08:52:52;31.40;68.60
23291;DHT22;11814;44.686;10.842;2023-07-20T08:55:20;31.40;68.60
23291;DHT22;11814;44.686;10.842;2023-07-20T08:57:49;31.40;68.50
23291;DHT22;11814;44.686;10.842;2023-07-20T09:00:17;31.50;68.50
23291;DHT22;11814;44.686;10.842;2023-07-20T09:02:45;31.50;68.20
23291;DHT22;11814;44.686;10.842;2023-07-20T09:05:11;31.70;68.40
23291;DHT22;11814;44.686;10.842;2023-07-20T09:07:40;31.60;68.20
23291;DHT22;11814;44.686;10.842;2023-07-20T09:10:06;31.80;68.30
23291;DHT22;11814;44.686;10.842;2023-07-20T09:12:36;31.80;67.90
23291;DHT22;11814;44.686;10.842;2023-07-20T09:15:02;31.70;67.90
23291;DHT22;11814;44.686;10.842;2023-07-20T09:17:28;31.70;68.00
23291;DHT22;11814;44.686;10.842;2023-07-20T09:19:54;31.80;68.10
23291;DHT22;11814;44.686;10.842;2023-07-20T09:22:20;31.80;68.00
23291;DHT22;11814;44.686;10.842;2023-07-20T09:24:45;31.70;68.10
23291;DHT22;11814;44.686;10.842;2023-07-20T09:27:11;31.80;68.60
23291;DHT22;11814;44.686;10.842;2023-07-20T09:29:51;31.80;68.50
23291;DHT22;11814;44.686;10.842;2023-07-20T09:32:21;31.90;68.60
23291;DHT22;11814;44.686;10.842;2023-07-20T09:34:47;31.90;68.70
23291;DHT22;11814;44.686;10.842;2023-07-20T09:37:13;32.00;68.60
23291;DHT22;11814;44.686;10.842;2023-07-20T09:39:45;32.10;68.20
23291;DHT22;11814;44.686;10.842;2023-07-20T09:42:14;32.10;68.00
23291;DHT22;11814;44.686;10.842;2023-07-20T09:44:43;32.10;68.20
23291;DHT22;11814;44.686;10.842;2023-07-20T09:47:08;32.10;68.20
23291;DHT22;11814;44.686;10.842;2023-07-20T09:49:39;32.10;67.90
23291;DHT22;11814;44.686;10.842;2023-07-20T09:52:07;32.10;68.40
23291;DHT22;11814;44.686;10.842;2023-07-20T09:54:33;32.10;68.60
23291;DHT22;11814;44.686;10.842;2023-07-20T09:57:00;32.20;68.70
23291;DHT22;11814;44.686;10.842;2023-07-20T09:59:26;32.30;68.40
23291;DHT22;11814;44.686;10.842;2023-07-20T10:01:53;32.20;68.10
23291;DHT22;11814;44.686;10.842;2023-07-20T10:04:23;32.30;68.20
23291;DHT22;11814;44.686;10.842;2023-07-20T10:06:52;32.30;68.10
23291;DHT22;11814;44.686;10.842;2023-07-20T10:09:20;32.20;68.10
23291;DHT22;11814;44.686;10.842;2023-07-20T10:11:50;32.20;68.50
23291;DHT22;11814;44.686;10.842;2023-07-20T10:14:20;32.20;69.00
23291;DHT22;11814;44.686;10.842;2023-07-20T10:16:55;32.20;69.20
23291;DHT22;11814;44.686;10.842;2023-07-20T10:19:46;32.30;69.20
23291;DHT22;11814;44.686;10.842;2023-07-20T10:22:15;32.40;69.00
23291;DHT22;11814;44.686;10.842;2023-07-20T10:24:46;32.50;69.20
23291;DHT22;11814;44.686;10.842;2023-07-20T10:27:13;32.50;69.20
23291;DHT22;11814;44.686;10.842;2023-07-20T10:29:40;32.50;69.20
23291;DHT22;11814;44.686;10.842;2023-07-20T10:32:06;32.60;68.90
23291;DHT22;11814;44.686;10.842;2023-07-20T10:34:33;32.70;69.00
23291;DHT22;11814;44.686;10.842;2023-07-20T10:36:59;32.80;69.00
23291;DHT22;11814;44.686;10.842;2023-07-20T10:39:28;32.80;69.40
23291;DHT22;11814;44.686;10.842;2023-07-20T10:42:09;32.80;68.60
23291;DHT22;11814;44.686;10.842;2023-07-20T10:44:39;32.90;68.40
23291;DHT22;11814;44.686;10.842;2023-07-20T10:47:10;32.80;68.70
23291;DHT22;11814;44.686;10.842;2023-07-20T10:49:59;32.80;68.70
23291;DHT22;11814;44.686;10.842;2023-07-20T10:52:26;32.70;68.50
23291;DHT22;11814;44.686;10.842;2023-07-20T10:54:51;32.60;68.80
23291;DHT22;11814;44.686;10.842;2023-07-20T10:57:30;32.70;69.40
23291;DHT22;11814;44.686;10.842;2023-07-20T11:00:13;32.90;69.20
23291;DHT22;11814;44.686;10.842;2023-07-20T11:02:58;32.90;69.90
23291;DHT22;11814;44.686;10.842;2023-07-20T11:05:38;33.00;68.90
23291;DHT22;11814;44.686;10.842;2023-07-20T11:08:14;33.00;68.70
23291;DHT22;11814;44.686;10.842;2023-07-20T11:11:27;33.10;68.50
23291;DHT22;11814;44.686;10.842;2023-07-20T11:14:01;33.20;68.20
23291;DHT22;11814;44.686;10.842;2023-07-20T11:16:53;33.20;67.90
23291;DHT22;11814;44.686;10.842;2023-07-20T11:19:19;33.20;68.40
23291;DHT22;11814;44.686;10.842;2023-07-20T11:21:50;33.20;68.10
23291;DHT22;11814;44.686;10.842;2023-07-20T11:24:17;33.30;68.10
23291;DHT22;11814;44.686;10.842;2023-07-20T11:26:44;33.30;67.80
23291;DHT22;11814;44.686;10.842;2023-07-20T11:29:11;33.30;67.70
23291;DHT22;11814;44.686;10.842;2023-07-20T11:31:41;33.40;67.50
23291;DHT22;11814;44.686;10.842;2023-07-20T11:34:12;33.50;67.30
23291;DHT22;11814;44.686;10.842;2023-07-20T11:36:42;33.60;66.90
23291;DHT22;11814;44.686;10.842;2023-07-20T11:39:09;33.70;66.70
23291;DHT22;11814;44.686;10.842;2023-07-20T11:41:35;33.80;66.50
23291;DHT22;11814;44.686;10.842;2023-07-20T11:44:02;33.80;66.20
23291;DHT22;11814;44.686;10.842;2023-07-20T11:46:28;33.80;66.50
23291;DHT22;11814;44.686;10.842;2023-07-20T11:49:01;34.00;67.00
23291;DHT22;11814;44.686;10.842;2023-07-20T11:51:28;34.00;66.00
23291;DHT22;11814;44.686;10.842;2023-07-20T11:53:54;34.10;66.00
23291;DHT22;11814;44.686;10.842;2023-07-20T11:56:20;34.10;65.90
23291;DHT22;11814;44.686;10.842;2023-07-20T11:58:46;34.10;65.80
23291;DHT22;11814;44.686;10.842;2023-07-20T12:01:13;34.00;65.90
23291;DHT22;11814;44.686;10.842;2023-07-20T12:03:39;34.00;65.80
23291;DHT22;11814;44.686;10.842;2023-07-20T12:06:11;34.00;66.00
23291;DHT22;11814;44.686;10.842;2023-07-20T12:08:41;34.10;66.00
23291;DHT22;11814;44.686;10.842;2023-07-20T12:11:07;34.10;65.60
23291;DHT22;11814;44.686;10.842;2023-07-20T12:13:42;34.20;65.30
23291;DHT22;11814;44.686;10.842;2023-07-20T12:16:15;34.20;65.50
23291;DHT22;11814;44.686;10.842;2023-07-20T12:18:43;34.20;65.20
23291;DHT22;11814;44.686;10.842;2023-07-20T12:21:09;34.20;65.20
23291;DHT22;11814;44.686;10.842;2023-07-20T12:23:39;34.20;65.10
23291;DHT22;11814;44.686;10.842;2023-07-20T12:26:09;34.10;65.20
23291;DHT22;11814;44.686;10.842;2023-07-20T12:28:41;34.00;65.30
23291;DHT22;11814;44.686;10.842;2023-07-20T12:31:10;34.10;65.30
23291;DHT22;11814;44.686;10.842;2023-07-20T12:33:39;34.20;64.90
23291;DHT22;11814;44.686;10.842;2023-07-20T12:36:04;34.20;64.50
23291;DHT22;11814;44.686;10.842;2023-07-20T12:38:30;34.30;64.30
23291;DHT22;11814;44.686;10.842;2023-07-20T12:40:57;34.30;64.30
23291;DHT22;11814;44.686;10.842;2023-07-20T12:43:24;34.40;64.10
23291;DHT22;11814;44.686;10.842;2023-07-20T12:45:49;34.40;63.80
23291;DHT22;11814;44.686;10.842;2023-07-20T12:48:15;34.50;63.90
23291;DHT22;11814;44.686;10.842;2023-07-20T12:50:41;34.50;63.70
23291;DHT22;11814;44.686;10.842;2023-07-20T12:53:07;34.40;63.60
23291;DHT22;11814;44.686;10.842;2023-07-20T12:55:33;34.40;63.80
23291;DHT22;11814;44.686;10.842;2023-07-20T12:57:59;34.50;64.00
23291;DHT22;11814;44.686;10.842;2023-07-20T13:00:25;34.50;64.00
23291;DHT22;11814;44.686;10.842;2023-07-20T13:02:51;34.60;64.50
23291;DHT22;11814;44.686;10.842;2023-07-20T13:05:17;34.60;64.60
23291;DHT22;11814;44.686;10.842;2023-07-20T13:07:43;34.50;64.90
23291;DHT22;11814;44.686;10.842;2023-07-20T13:10:10;34.60;65.30
23291;DHT22;11814;44.686;10.842;2023-07-20T13:12:36;34.60;65.00
23291;DHT22;11814;44.686;10.842;2023-07-20T13:15:04;34.60;64.90
23291;DHT22;11814;44.686;10.842;2023-07-20T13:17:37;34.60;64.90
23291;DHT22;11814;44.686;10.842;2023-07-20T13:20:05;34.60;64.90
23291;DHT22;11814;44.686;10.842;2023-07-20T13:22:31;34.60;65.30
23291;DHT22;11814;44.686;10.842;2023-07-20T13:24:58;34.50;65.20
23291;DHT22;11814;44.686;10.842;2023-07-20T13:27:23;34.50;65.50
23291;DHT22;11814;44.686;10.842;2023-07-20T13:29:51;34.50;65.80
23291;DHT22;11814;44.686;10.842;2023-07-20T13:32:17;34.60;66.00
23291;DHT22;11814;44.686;10.842;2023-07-20T13:34:44;34.70;65.80
23291;DHT22;11814;44.686;10.842;2023-07-20T13:37:10;34.70;65.40
23291;DHT22;11814;44.686;10.842;2023-07-20T13:39:37;34.70;65.20
23291;DHT22;11814;44.686;10.842;2023-07-20T13:42:03;34.80;64.30
23291;DHT22;11814;44.686;10.842;2023-07-20T13:44:31;34.90;63.60
23291;DHT22;11814;44.686;10.842;2023-07-20T13:46:57;35.00;63.60
23291;DHT22;11814;44.686;10.842;2023-07-20T13:49:23;35.10;63.80
23291;DHT22;11814;44.686;10.842;2023-07-20T13:51:48;35.00;64.10
23291;DHT22;11814;44.686;10.842;2023-07-20T13:54:14;34.90;64.20
23291;DHT22;11814;44.686;10.842;2023-07-20T13:56:40;34.90;64.60
23291;DHT22;11814;44.686;10.842;2023-07-20T13:59:06;34.90;64.90
23291;DHT22;11814;44.686;10.842;2023-07-20T14:01:31;34.90;64.70
23291;DHT22;11814;44.686;10.842;2023-07-20T14:04:00;35.00;64.30
23291;DHT22;11814;44.686;10.842;2023-07-20T14:06:27;35.10;63.80
23291;DHT22;11814;44.686;10.842;2023-07-20T14:08:53;35.10;63.30
23291;DHT22;11814;44.686;10.842;2023-07-20T14:11:19;35.10;62.80
23291;DHT22;11814;44.686;10.842;2023-07-20T14:13:45;35.00;62.50
23291;DHT22;11814;44.686;10.842;2023-07-20T14:16:10;35.10;61.80
23291;DHT22;11814;44.686;10.842;2023-07-20T14:18:36;35.10;61.70
23291;DHT22;11814;44.686;10.842;2023-07-20T14:21:02;35.20;62.00
23291;DHT22;11814;44.686;10.842;2023-07-20T14:23:29;35.30;62.50
23291;DHT22;11814;44.686;10.842;2023-07-20T14:25:55;35.40;62.80
23291;DHT22;11814;44.686;10.842;2023-07-20T14:28:21;35.30;62.60
23291;DHT22;11814;44.686;10.842;2023-07-20T14:30:46;35.20;62.90
23291;DHT22;11814;44.686;10.842;2023-07-20T14:33:12;35.10;63.20
23291;DHT22;11814;44.686;10.842;2023-07-20T14:35:38;35.20;62.50
23291;DHT22;11814;44.686;10.842;2023-07-20T14:38:04;35.10;62.20
23291;DHT22;11814;44.686;10.842;2023-07-20T14:40:29;35.10;61.60
23291;DHT22;11814;44.686;10.842;2023-07-20T14:42:59;35.00;61.40
23291;DHT22;11814;44.686;10.842;2023-07-20T14:45:27;34.80;61.70
23291;DHT22;11814;44.686;10.842;2023-07-20T14:47:53;34.70;62.10
23291;DHT22;11814;44.686;10.842;2023-07-20T14:50:22;34.60;62.40
23291;DHT22;11814;44.686;10.842;2023-07-20T14:52:48;34.50;62.10
23291;DHT22;11814;44.686;10.842;2023-07-20T14:55:15;34.40;62.50
23291;DHT22;11814;44.686;10.842;2023-07-20T14:57:40;34.40;63.20
23291;DHT22;11814;44.686;10.842;2023-07-20T15:00:06;34.40;63.50
23291;DHT22;11814;44.686;10.842;2023-07-20T15:02:38;34.30;63.80
23291;DHT22;11814;44.686;10.842;2023-07-20T15:05:07;34.20;64.20
23291;DHT22;11814;44.686;10.842;2023-07-20T15:07:33;34.20;64.60
23291;DHT22;11814;44.686;10.842;2023-07-20T15:09:58;34.10;64.50
23291;DHT22;11814;44.686;10.842;2023-07-20T15:12:24;34.10;64.60
23291;DHT22;11814;44.686;10.842;2023-07-20T15:15:05;34.20;64.70
23291;DHT22;11814;44.686;10.842;2023-07-20T15:17:32;34.30;64.90
23291;DHT22;11814;44.686;10.842;2023-07-20T15:19:57;34.50;64.30
23291;DHT22;11814;44.686;10.842;2023-07-20T15:22:23;34.60;64.30
23291;DHT22;11814;44.686;10.842;2023-07-20T15:24:49;34.60;63.90
23291;DHT22;11814;44.686;10.842;2023-07-20T15:27:15;34.70;63.50